Time;durP1;ratioP1;P1;durP2;ratioP2;P2;SDS_P1;SDS_P2;PMS_P1;PMS_P2;Temp;Humidity;BMP_temperature;BMP_pressure;BME280_temperature;BME280_humidity;BME280_pressure;Samples;Min_cycle;Max_cycle;Signal;HPM_P1;HPM_P2
2022/12/08 00:02:12;;;;;;;102.03;37.30;;;;;;;0.87;100.00;100372.38;4959505;28;20030;-72
2022/12/08 00:09:20;;;;;;;84.30;32.53;;;;;;;1.10;100.00;100370.72;4964533;28;20050;-72
2022/12/08 00:10:07;;;;;;;118.60;42.37;;;;;;;0.87;100.00;100355.53;4977480;28;20027;-71
2022/12/08 00:12:33;;;;;;;159.93;46.00;;;;;;;0.81;100.00;100365.66;4993907;28;20034;-71
2022/12/08 00:14:58;;;;;;;143.27;45.27;;;;;;;0.90;100.00;100363.31;4983031;28;20037;-71
2022/12/08 00:17:24;;;;;;;135.87;44.30;;;;;;;0.83;100.00;100357.56;4998803;28;20025;-73
2022/12/08 00:19:49;;;;;;;161.90;47.73;;;;;;;0.71;100.00;100348.59;4976251;28;20034;-71
2022/12/08 00:22:14;;;;;;;115.03;40.50;;;;;;;0.96;100.00;100352.19;4974148;28;20022;-73
2022/12/08 00:24:43;;;;;;;144.47;45.63;;;;;;;1.01;100.00;100344.72;4975401;28;20026;-71
2022/12/08 00:27:11;;;;;;;158.17;49.73;;;;;;;0.95;100.00;100339.84;4975108;28;20018;-71
2022/12/08 00:29:36;;;;;;;136.33;43.47;;;;;;;0.97;100.00;100343.25;4995014;28;20026;-71
2022/12/08 00:32:02;;;;;;;155.43;48.17;;;;;;;1.03;100.00;100333.00;5003789;28;20030;-72
2022/12/08 00:34:28;;;;;;;156.87;47.40;;;;;;;1.03;100.00;100340.13;4993971;28;20042;-71
2022/12/08 00:36:53;;;;;;;132.57;45.40;;;;;;;1.05;100.00;100330.25;4975113;28;20030;-72
2022/12/08 00:39:18;;;;;;;132.53;43.60;;;;;;;1.01;100.00;100329.59;4984145;28;20072;-74
2022/12/08 00:44:28;;;;;;;130.57;45.53;;;;;;;1.13;100.00;100321.69;5008740;28;20060;-72
2022/12/08 00:46:53;;;;;;;153.27;50.07;;;;;;;1.10;100.00;100322.72;4974886;28;20054;-72
2022/12/08 00:49:19;;;;;;;128.50;44.47;;;;;;;1.23;100.00;100317.34;4975514;28;20041;-72
2022/12/08 00:51:45;;;;;;;90.20;39.37;;;;;;;1.40;100.00;100318.81;4974370;28;20491;-72
2022/12/08 00:54:11;;;;;;;109.57;42.17;;;;;;;1.40;100.00;100314.31;4975318;28;20026;-73
2022/12/08 00:56:36;;;;;;;96.57;41.37;;;;;;;1.52;100.00;100317.91;4977200;28;20038;-73
2022/12/08 00:59:04;;;;;;;125.30;46.00;;;;;;;1.71;100.00;100307.53;5005472;28;20032;-72
2022/12/08 01:01:29;;;;;;;110.77;44.00;;;;;;;1.63;100.00;100315.28;4974499;28;20097;-73
2022/12/08 01:03:55;;;;;;;104.47;45.40;;;;;;;1.49;100.00;100302.09;4992175;28;20118;-72
2022/12/08 01:06:22;;;;;;;91.23;41.33;;;;;;;1.66;100.00;100309.72;4958832;28;20027;-72
2022/12/08 01:08:48;;;;;;;79.83;35.20;;;;;;;1.83;100.00;100306.63;4985915;28;20065;-72
2022/12/08 01:11:17;;;;;;;96.30;40.63;;;;;;;1.89;100.00;100306.16;4971019;28;20030;-72
2022/12/08 01:13:43;;;;;;;87.20;41.07;;;;;;;1.90;100.00;100299.84;4987296;28;20033;-72
2022/12/08 01:16:09;;;;;;;70.20;34.38;;;;;;;2.07;100.00;100303.03;4978775;28;20027;-72
2022/12/08 01:18:35;;;;;;;62.03;30.42;;;;;;;2.10;100.00;100308.16;4994350;28;20614;-72
2022/12/08 01:21:06;;;;;;;54.60;27.07;;;;;;;2.03;100.00;100312.25;4973206;28;20022;-72
2022/12/08 01:23:32;;;;;;;43.47;26.30;;;;;;;1.80;100.00;100301.50;4964813;28;20041;-74
2022/12/08 01:26:03;;;;;;;48.47;26.30;;;;;;;1.93;100.00;100301.44;4969077;28;20031;-73
2022/12/08 01:28:29;;;;;;;40.63;24.63;;;;;;;1.94;100.00;100294.25;4972294;28;20117;-74
2022/12/08 01:30:55;;;;;;;44.90;22.97;;;;;;;1.98;100.00;100293.91;4976798;28;20018;-74
2022/12/08 01:33:20;;;;;;;37.80;22.27;;;;;;;1.99;100.00;100289.44;4977335;28;20030;-75
2022/12/08 01:35:46;;;;;;;49.23;24.03;;;;;;;2.13;100.00;100286.53;4981420;28;20105;-76
2022/12/08 01:38:11;;;;;;;32.40;21.17;;;;;;;2.13;100.00;100289.22;4974005;28;20037;-73
2022/12/08 01:40:36;;;;;;;33.23;21.87;;;;;;;2.14;100.00;100282.91;4973275;28;20030;-74
2022/12/08 01:43:02;;;;;;;34.60;21.57;;;;;;;2.11;100.00;100283.16;4973215;28;20038;-74
2022/12/08 01:45:30;;;;;;;42.03;22.90;;;;;;;1.93;100.00;100276.56;4965963;28;20049;-74
2022/12/08 01:48:04;;;;;;;39.77;20.70;;;;;;;2.12;100.00;100274.16;4976984;28;20411;-73
2022/12/08 01:50:31;;;;;;;38.17;21.47;;;;;;;2.26;100.00;100281.94;4956571;28;20022;-73
2022/12/08 01:53:01;;;;;;;45.57;22.93;;;;;;;2.29;100.00;100272.88;4954629;28;20038;-73
2022/12/08 01:55:34;;;;;;;37.40;21.23;;;;;;;2.40;100.00;100268.34;4963363;28;20032;-73
2022/12/08 01:58:04;;;;;;;50.72;25.33;;;;;;;2.47;100.00;100262.53;4990919;28;20050;-73
2022/12/08 02:00:30;;;;;;;36.27;20.40;;;;;;;2.55;100.00;100276.16;4975101;28;20018;-74
2022/12/08 02:03:03;;;;;;;42.08;22.85;;;;;;;2.60;100.00;100268.59;4975352;28;20079;-76
2022/12/08 02:05:37;;;;;;;37.97;20.77;;;;;;;2.54;100.00;100274.44;4974902;28;20026;-77
2022/12/08 02:08:06;;;;;;;43.43;24.43;;;;;;;2.43;100.00;100276.16;4984554;28;20046;-77
2022/12/08 02:10:35;;;;;;;35.57;23.77;;;;;;;2.19;100.00;100259.34;4956413;28;20118;-77
2022/12/08 02:13:02;;;;;;;37.57;21.67;;;;;;;2.17;100.00;100269.31;4974407;28;20376;-76
2022/12/08 02:15:47;;;;;;;41.87;26.13;;;;;;;1.99;100.00;100262.72;4973201;28;20161;-77
2022/12/08 02:18:19;;;;;;;37.57;22.10;;;;;;;2.00;100.00;100275.09;4966181;28;20022;-76
2022/12/08 02:21:09;;;;;;;28.52;16.55;;;;;;;1.53;100.00;100266.25;4968492;28;20037;-79
2022/12/08 02:23:53;;;;;;;28.43;18.53;;;;;;;1.25;100.00;100262.97;4975790;28;20038;-77
2022/12/08 02:26:32;;;;;;;30.63;18.03;;;;;;;1.39;100.00;100253.09;4970024;28;20038;-77
2022/12/08 02:29:51;;;;;;;32.37;20.53;;;;;;;1.25;100.00;100252.31;4954991;28;20034;-76
2022/12/08 02:32:32;;;;;;;36.57;19.77;;;;;;;1.39;100.00;100253.09;4964032;28;20023;-75
2022/12/08 02:35:09;;;;;;;31.48;16.52;;;;;;;1.35;100.00;100247.97;4996480;28;20479;-74
2022/12/08 02:37:44;;;;;;;42.43;24.10;;;;;;;1.30;100.00;100244.81;4975326;28;20110;-74
2022/12/08 02:40:21;;;;;;;36.67;22.37;;;;;;;1.46;100.00;100239.19;4979389;28;20109;-74
2022/12/08 02:42:54;;;;;;;37.37;21.93;;;;;;;1.56;100.00;100245.50;4974115;28;20027;-75
2022/12/08 02:45:42;;;;;;;41.13;24.87;;;;;;;1.67;100.00;100236.69;4965825;28;20038;-74
2022/12/08 02:48:08;;;;;;;40.77;23.03;;;;;;;1.76;100.00;100235.13;4977380;28;20454;-74
2022/12/08 02:50:34;;;;;;;41.20;21.93;;;;;;;1.79;100.00;100224.22;4977169;28;20026;-74
2022/12/08 02:53:00;;;;;;;31.63;18.97;;;;;;;1.82;100.00;100227.50;4972106;28;20081;-74
2022/12/08 02:55:53;;;;;;;38.13;21.53;;;;;;;1.84;100.00;100222.91;4999976;28;20025;-74
2022/12/08 02:58:21;;;;;;;36.23;22.30;;;;;;;1.88;100.00;100224.34;4973190;28;20022;-74
2022/12/08 03:00:56;;;;;;;33.83;19.93;;;;;;;1.82;100.00;100214.16;4969312;28;20046;-74
2022/12/08 03:03:53;;;;;;;34.37;20.50;;;;;;;1.86;100.00;100220.13;4977026;28;20030;-74
2022/12/08 03:07:07;;;;;;;26.87;18.17;;;;;;;1.84;100.00;100217.56;5006531;28;20084;-75
2022/12/08 03:09:41;;;;;;;25.73;17.33;;;;;;;2.04;100.00;100212.50;4969922;28;20076;-75
2022/12/08 03:12:19;;;;;;;34.00;17.53;;;;;;;2.12;100.00;100210.09;4976619;28;20069;-74
2022/12/08 03:14:49;;;;;;;29.23;16.90;;;;;;;1.99;100.00;100214.69;4968571;28;20102;-74
2022/12/08 03:17:18;;;;;;;26.37;14.87;;;;;;;1.89;100.00;100196.72;4969705;28;20031;-74
2022/12/08 03:19:45;;;;;;;20.57;14.20;;;;;;;1.94;100.00;100211.50;4993835;28;20125;-74
2022/12/08 03:22:13;;;;;;;35.90;16.57;;;;;;;1.97;100.00;100197.94;4976600;28;20454;-74
2022/12/08 03:24:42;;;;;;;28.20;15.73;;;;;;;2.08;100.00;100197.94;4976842;28;20468;-74
2022/12/08 03:27:11;;;;;;;19.07;12.47;;;;;;;2.01;100.00;100207.38;4968143;28;20064;-74
2022/12/08 03:29:37;;;;;;;22.77;13.57;;;;;;;2.06;100.00;100205.22;5011928;28;20048;-74
2022/12/08 03:32:10;;;;;;;27.57;12.87;;;;;;;2.09;100.00;100194.31;4981915;28;20468;-74
2022/12/08 03:34:38;;;;;;;19.60;10.90;;;;;;;2.12;100.00;100186.06;4976653;28;20034;-74
2022/12/08 03:37:04;;;;;;;30.27;13.10;;;;;;;2.29;100.00;100185.56;4999388;28;20045;-74
2022/12/08 03:39:29;;;;;;;21.70;11.90;;;;;;;2.30;100.00;100181.91;4966970;28;20523;-74
2022/12/08 03:41:55;;;;;;;17.73;11.33;;;;;;;2.20;100.00;100175.59;4969421;28;20402;-74
2022/12/08 03:44:20;;;;;;;17.80;11.20;;;;;;;2.08;100.00;100187.25;4968448;28;20030;-74
2022/12/08 03:46:45;;;;;;;20.47;10.80;;;;;;;2.17;100.00;100186.53;4978566;28;20030;-74
2022/12/08 03:49:11;;;;;;;21.03;11.33;;;;;;;2.26;100.00;100175.13;4996194;28;20042;-74
2022/12/08 03:51:36;;;;;;;12.80;9.23;;;;;;;2.21;100.00;100174.63;4995069;28;20113;-74
2022/12/08 03:54:02;;;;;;;17.53;11.30;;;;;;;2.10;100.00;100180.84;4982377;28;20034;-74
2022/12/08 03:56:34;;;;;;;21.40;10.57;;;;;;;2.19;100.00;100179.25;4972382;28;20026;-74
2022/12/08 03:59:00;;;;;;;22.25;11.07;;;;;;;2.20;100.00;100170.25;4974987;28;20495;-74
2022/12/08 04:01:26;;;;;;;20.10;10.43;;;;;;;2.17;100.00;100175.84;4967657;28;20037;-74
2022/12/08 04:03:52;;;;;;;19.93;11.00;;;;;;;2.34;100.00;100172.66;4975802;28;20407;-74
2022/12/08 04:06:18;;;;;;;17.70;9.40;;;;;;;2.22;100.00;100172.81;4975381;28;20037;-74
2022/12/08 04:08:43;;;;;;;16.20;8.23;;;;;;;2.14;100.00;100176.09;4965156;28;20114;-74
2022/12/08 04:11:09;;;;;;;15.30;8.63;;;;;;;2.14;100.00;100168.91;4969444;28;20022;-74
2022/12/08 04:13:36;;;;;;;19.53;9.83;;;;;;;2.00;100.00;100165.66;4967965;28;20068;-75
2022/12/08 04:16:02;;;;;;;15.47;10.30;;;;;;;2.15;100.00;100156.41;4968955;28;20038;-74
2022/12/08 04:18:28;;;;;;;24.17;9.87;;;;;;;2.14;100.00;100160.06;4956233;28;20038;-75
2022/12/08 04:20:53;;;;;;;13.20;7.73;;;;;;;2.07;100.00;100158.84;4971292;28;20041;-75
2022/12/08 04:23:19;;;;;;;16.30;10.10;;;;;;;1.97;100.00;100152.56;4962825;28;20030;-77
2022/12/08 04:25:44;;;;;;;16.37;8.70;;;;;;;1.93;100.00;100159.09;4983837;28;20050;-75
2022/12/08 04:28:10;;;;;;;9.60;6.80;;;;;;;2.05;100.00;100145.63;4978343;28;20034;-75
2022/12/08 04:30:36;;;;;;;11.50;6.97;;;;;;;2.09;100.00;100156.94;4965103;28;20043;-77
2022/12/08 04:33:01;;;;;;;13.50;6.53;;;;;;;2.26;100.00;100153.75;4962184;28;20031;-76
2022/12/08 04:35:27;;;;;;;11.67;7.37;;;;;;;2.22;100.00;100146.97;4963114;28;20041;-77
2022/12/08 04:37:52;;;;;;;10.10;6.00;;;;;;;1.95;100.00;100154.47;4980872;28;20046;-76
2022/12/08 04:40:18;;;;;;;9.93;5.93;;;;;;;2.08;100.00;100155.22;4964204;28;20484;-78
2022/12/08 04:42:44;;;;;;;11.20;6.30;;;;;;;2.06;100.00;100157.16;4974930;28;20122;-76
2022/12/08 04:45:10;;;;;;;6.23;5.07;;;;;;;1.95;100.00;100165.16;4973024;28;20026;-76
2022/12/08 04:47:35;;;;;;;9.77;6.07;;;;;;;1.97;100.00;100152.56;4967436;28;20493;-76
2022/12/08 04:50:01;;;;;;;11.70;6.30;;;;;;;1.86;100.00;100143.56;4970794;28;20031;-76
2022/12/08 04:52:26;;;;;;;9.47;5.57;;;;;;;1.93;100.00;100148.41;4971473;28;20395;-76
2022/12/08 04:54:51;;;;;;;8.10;5.47;;;;;;;1.84;100.00;100142.84;4983360;28;20037;-76
2022/12/08 04:57:17;;;;;;;10.03;6.97;;;;;;;1.96;100.00;100145.53;4968255;28;20518;-76
2022/12/08 04:59:48;;;;;;;7.57;5.43;;;;;;;1.81;100.00;100143.06;4966043;28;20037;-78
2022/12/08 05:02:14;;;;;;;6.38;4.57;;;;;;;1.79;100.00;100133.50;4980282;28;20065;-76
2022/12/08 05:04:39;;;;;;;9.43;5.53;;;;;;;1.92;100.00;100133.38;4965418;28;20069;-76
2022/12/08 05:07:05;;;;;;;7.60;5.57;;;;;;;1.88;100.00;100138.94;4960364;28;20022;-76
2022/12/08 05:09:30;;;;;;;7.57;5.03;;;;;;;1.88;100.00;100138.94;4963826;28;20523;-76
2022/12/08 05:11:55;;;;;;;8.87;5.07;;;;;;;1.79;100.00;100145.00;4982304;28;20029;-77
2022/12/08 05:14:21;;;;;;;8.30;5.77;;;;;;;1.96;100.00;100140.19;4992940;28;20028;-76
2022/12/08 05:16:47;;;;;;;6.93;5.33;;;;;;;1.72;100.00;100143.81;4992388;28;20049;-76
2022/12/08 05:19:13;;;;;;;7.37;5.47;;;;;;;1.97;100.00;100141.88;4969233;28;20101;-77
2022/12/08 05:21:40;;;;;;;8.53;5.90;;;;;;;1.97;100.00;100141.88;4971992;28;20066;-77
2022/12/08 05:24:05;;;;;;;11.00;6.40;;;;;;;1.89;100.00;100151.34;4967626;28;20060;-77
2022/12/08 05:26:30;;;;;;;9.00;7.47;;;;;;;1.83;100.00;100142.97;4975014;28;20472;-77
2022/12/08 05:28:56;;;;;;;11.07;6.67;;;;;;;1.83;100.00;100143.81;5008658;28;20033;-76
2022/12/08 05:31:21;;;;;;;11.47;7.07;;;;;;;1.84;100.00;100137.50;4974762;28;20106;-77
2022/12/08 05:33:49;;;;;;;9.27;6.90;;;;;;;1.98;100.00;100141.75;4966710;28;20029;-77
2022/12/08 05:36:15;;;;;;;11.07;6.43;;;;;;;1.88;100.00;100138.94;4987586;28;20030;-76
2022/12/08 05:38:41;;;;;;;15.03;6.90;;;;;;;1.97;100.00;100141.88;4976041;28;20036;-76
2022/12/08 05:41:08;;;;;;;10.87;6.40;;;;;;;2.04;100.00;100137.75;4980940;28;20030;-76
2022/12/08 05:43:34;;;;;;;7.20;5.40;;;;;;;1.89;100.00;100124.66;4974758;28;20035;-76
2022/12/08 05:45:59;;;;;;;7.63;6.30;;;;;;;1.86;100.00;100129.38;4995766;28;20037;-76
2022/12/08 05:48:25;;;;;;;9.77;6.70;;;;;;;2.06;100.00;100143.81;4976186;28;20081;-76
2022/12/08 05:50:51;;;;;;;13.13;6.67;;;;;;;2.08;100.00;100155.22;4974816;28;20070;-75
2022/12/08 05:53:18;;;;;;;9.37;5.70;;;;;;;1.82;100.00;100144.75;4973977;28;20026;-75
2022/12/08 05:55:44;;;;;;;6.17;4.67;;;;;;;1.88;100.00;100154.97;4974747;28;20030;-75
2022/12/08 05:58:13;;;;;;;7.60;5.80;;;;;;;1.77;100.00;100157.66;4966979;28;20030;-75
2022/12/08 06:00:38;;;;;;;7.77;5.73;;;;;;;1.77;100.00;100162.97;4991868;28;20038;-75
2022/12/08 06:03:04;;;;;;;8.13;6.73;;;;;;;2.10;100.00;100169.31;4974358;28;20092;-75
2022/12/08 06:05:31;;;;;;;9.90;6.67;;;;;;;1.96;100.00;100156.19;4966473;28;20053;-75
2022/12/08 06:07:57;;;;;;;11.20;6.90;;;;;;;1.93;100.00;100156.44;4966645;28;20030;-75
2022/12/08 06:10:22;;;;;;;9.57;6.87;;;;;;;1.75;100.00;100148.88;4963259;28;20030;-75
2022/12/08 06:12:48;;;;;;;8.13;6.23;;;;;;;1.85;100.00;100155.22;4974666;28;20125;-75
2022/12/08 06:15:13;;;;;;;8.27;6.43;;;;;;;1.85;100.00;100149.03;4972378;28;20030;-76
2022/12/08 06:17:38;;;;;;;8.80;6.87;;;;;;;2.03;100.00;100152.94;4999763;28;20030;-76
2022/12/08 06:20:04;;;;;;;8.50;5.87;;;;;;;2.03;100.00;100152.06;4974665;28;20049;-76
2022/12/08 06:22:30;;;;;;;7.50;6.10;;;;;;;1.95;100.00;100151.81;4977044;28;20038;-76
2022/12/08 06:24:55;;;;;;;6.90;5.50;;;;;;;1.93;100.00;100151.09;4962194;28;20034;-75
2022/12/08 06:27:21;;;;;;;8.33;6.90;;;;;;;1.81;100.00;100148.41;4995117;28;20030;-75
2022/12/08 06:29:46;;;;;;;9.07;7.10;;;;;;;1.92;100.00;100154.75;4978055;28;20036;-75
2022/12/08 06:32:11;;;;;;;10.13;6.90;;;;;;;2.22;100.00;100155.00;4972387;28;20062;-75
2022/12/08 06:34:36;;;;;;;7.50;5.90;;;;;;;2.21;100.00;100158.59;4975545;28;20022;-75
2022/12/08 06:37:02;;;;;;;7.63;5.67;;;;;;;1.97;100.00;100163.25;4966353;28;20027;-75
2022/12/08 06:39:27;;;;;;;6.13;5.33;;;;;;;1.93;100.00;100161.78;4969921;28;20065;-77
2022/12/08 06:44:38;;;;;;;13.30;6.73;;;;;;;1.97;100.00;100163.25;5001987;28;20044;-75
2022/12/08 06:47:03;;;;;;;7.77;6.20;;;;;;;1.87;100.00;100163.09;4973500;28;20031;-75
2022/12/08 06:49:29;;;;;;;11.27;7.07;;;;;;;1.85;100.00;100171.22;4993047;28;20464;-75
2022/12/08 06:51:54;;;;;;;12.07;7.17;;;;;;;1.80;100.00;100172.56;4971783;28;20034;-75
2022/12/08 06:54:19;;;;;;;13.00;7.53;;;;;;;1.97;100.00;100169.41;4983405;28;20060;-75
2022/12/08 06:56:44;;;;;;;10.30;7.67;;;;;;;1.87;100.00;100174.63;4969393;28;20023;-75
2022/12/08 06:59:10;;;;;;;10.63;7.13;;;;;;;1.81;100.00;100177.75;4977686;28;20049;-75
2022/12/08 07:01:35;;;;;;;9.87;7.30;;;;;;;1.95;100.00;100174.00;4968317;28;20494;-76
2022/12/08 07:04:00;;;;;;;11.50;8.03;;;;;;;1.79;100.00;100179.72;4984996;28;20029;-73
2022/12/08 07:06:26;;;;;;;11.07;7.03;;;;;;;1.97;100.00;100179.25;4968928;28;20026;-73
2022/12/08 07:08:51;;;;;;;10.50;7.73;;;;;;;2.11;100.00;100184.34;4991924;28;20033;-73
2022/12/08 07:11:17;;;;;;;16.63;9.27;;;;;;;1.81;100.00;100180.44;5000807;28;20029;-73
2022/12/08 07:13:43;;;;;;;10.07;7.70;;;;;;;1.60;100.00;100192.78;4980489;28;20029;-74
2022/12/08 07:16:10;;;;;;;12.37;7.70;;;;;;;1.70;100.00;100184.94;4984100;28;20072;-75
2022/12/08 07:18:35;;;;;;;14.83;9.90;;;;;;;1.71;100.00;100190.13;4960831;28;20023;-74
2022/12/08 07:21:06;;;;;;;14.10;10.30;;;;;;;1.51;100.00;100180.16;4965051;28;20062;-73
2022/12/08 07:23:32;;;;;;;16.37;10.57;;;;;;;1.43;100.00;100185.19;4965662;28;20049;-75
2022/12/08 07:26:07;;;;;;;22.60;13.73;;;;;;;1.10;100.00;100186.78;4976579;28;20179;-73
2022/12/08 07:28:34;;;;;;;18.87;11.30;;;;;;;1.18;100.00;100181.75;4976260;28;20037;-73
2022/12/08 07:31:00;;;;;;;23.50;13.40;;;;;;;1.44;100.00;100181.59;4973409;28;20033;-72
2022/12/08 07:33:25;;;;;;;24.87;12.50;;;;;;;1.30;100.00;100180.81;4976154;28;20030;-73
2022/12/08 07:36:00;;;;;;;31.67;15.50;;;;;;;1.19;100.00;100177.25;4976670;28;20025;-72
2022/12/08 07:38:26;;;;;;;28.20;14.93;;;;;;;1.32;100.00;100178.03;4966696;28;20027;-72
2022/12/08 07:40:52;;;;;;;23.87;13.23;;;;;;;1.28;100.00;100177.41;4965800;28;20057;-73
2022/12/08 07:43:18;;;;;;;26.57;14.93;;;;;;;1.48;100.00;100172.38;4976406;28;20112;-72
2022/12/08 07:45:43;;;;;;;23.63;12.83;;;;;;;1.52;100.00;100177.34;4976928;28;20030;-70
2022/12/08 07:48:08;;;;;;;38.53;17.27;;;;;;;1.49;100.00;100179.41;4977086;28;20501;-70
2022/12/08 07:50:34;;;;;;;31.67;15.87;;;;;;;1.58;100.00;100178.72;4976752;28;20022;-70
2022/12/08 07:53:00;;;;;;;33.40;16.73;;;;;;;1.47;100.00;100176.00;4974004;28;20033;-71
2022/12/08 07:55:25;;;;;;;37.97;19.60;;;;;;;1.39;100.00;100173.09;4970993;28;20018;-70
2022/12/08 07:57:51;;;;;;;28.77;16.37;;;;;;;1.48;100.00;100178.56;4968493;28;20042;-71
2022/12/08 08:00:17;;;;;;;34.37;17.50;;;;;;;1.38;100.00;100187.38;4977064;28;20035;-70
2022/12/08 08:02:43;;;;;;;32.33;16.90;;;;;;;1.45;100.00;100183.28;4976697;28;20025;-71
2022/12/08 08:05:11;;;;;;;25.73;16.03;;;;;;;1.33;100.00;100185.91;4977083;28;20018;-71
2022/12/08 08:07:37;;;;;;;32.97;16.90;;;;;;;1.55;100.00;100178.94;4971885;28;20030;-71
2022/12/08 08:10:04;;;;;;;22.13;14.43;;;;;;;1.62;100.00;100190.81;4976111;28;20104;-71
2022/12/08 08:12:29;;;;;;;32.90;17.87;;;;;;;1.47;100.00;100192.84;4975890;28;20109;-71
2022/12/08 08:14:55;;;;;;;31.13;17.77;;;;;;;1.44;100.00;100192.25;4975868;28;20440;-71
2022/12/08 08:17:20;;;;;;;29.83;17.20;;;;;;;1.49;100.00;100184.72;4976025;28;20072;-70
2022/12/08 08:19:45;;;;;;;27.47;16.63;;;;;;;1.48;100.00;100204.38;4969058;28;20021;-71
2022/12/08 08:22:11;;;;;;;25.77;16.20;;;;;;;1.52;100.00;100195.19;4991013;28;20080;-72
2022/12/08 08:24:36;;;;;;;28.40;17.80;;;;;;;1.44;100.00;100202.94;4987660;28;20049;-72
2022/12/08 08:27:02;;;;;;;26.83;17.63;;;;;;;1.68;100.00;100201.03;4975925;28;20037;-71
2022/12/08 08:29:27;;;;;;;33.97;18.10;;;;;;;1.55;100.00;100189.59;4976408;28;20022;-71
2022/12/08 08:31:52;;;;;;;29.50;17.70;;;;;;;1.71;100.00;100189.28;4977751;28;20033;-71
2022/12/08 08:34:18;;;;;;;32.63;19.30;;;;;;;1.71;100.00;100200.81;4990745;28;20029;-71
2022/12/08 08:36:43;;;;;;;31.80;19.03;;;;;;;1.76;100.00;100203.97;4991853;28;20041;-71
2022/12/08 08:39:09;;;;;;;32.17;18.90;;;;;;;1.78;100.00;100207.38;4976391;28;20030;-72
2022/12/08 08:41:34;;;;;;;26.37;17.37;;;;;;;1.92;100.00;100205.44;4975939;28;20065;-71
2022/12/08 08:44:00;;;;;;;26.97;17.10;;;;;;;1.85;100.00;100208.59;4975395;28;20053;-71
2022/12/08 08:46:26;;;;;;;28.83;17.33;;;;;;;1.75;100.00;100202.25;4976206;28;20026;-71
2022/12/08 08:48:51;;;;;;;29.43;17.13;;;;;;;1.99;100.00;100194.16;4975008;28;20022;-72
2022/12/08 08:51:17;;;;;;;21.93;15.07;;;;;;;2.07;100.00;100202.41;4975935;28;20026;-72
2022/12/08 08:53:42;;;;;;;24.60;16.20;;;;;;;1.95;100.00;100199.84;4975644;28;20105;-72
2022/12/08 08:56:18;;;;;;;24.27;15.17;;;;;;;1.81;100.00;100204.44;4976544;28;20034;-72
2022/12/08 08:58:43;;;;;;;27.03;16.33;;;;;;;2.04;100.00;100207.16;4975492;28;20029;-73
2022/12/08 09:01:14;;;;;;;30.70;15.03;;;;;;;1.90;100.00;100214.44;4975216;28;20030;-74
2022/12/08 09:03:40;;;;;;;25.23;15.23;;;;;;;1.86;100.00;100204.94;4975256;28;20026;-73
2022/12/08 09:06:05;;;;;;;27.27;15.40;;;;;;;1.60;100.00;100208.78;4963809;28;20507;-72
2022/12/08 09:08:31;;;;;;;23.57;15.17;;;;;;;1.58;100.00;100205.38;4965095;28;20054;-72
2022/12/08 09:10:56;;;;;;;26.13;15.20;;;;;;;1.60;100.00;100208.78;4970271;28;20135;-72
2022/12/08 09:13:21;;;;;;;26.53;15.73;;;;;;;1.52;100.00;100214.69;4968938;28;20474;-72
2022/12/08 09:15:47;;;;;;;30.10;16.33;;;;;;;1.51;100.00;100209.50;4970806;28;20186;-71
2022/12/08 09:18:12;;;;;;;44.63;23.20;;;;;;;1.58;100.00;100218.72;4969691;28;20081;-71
2022/12/08 09:20:38;;;;;;;29.00;15.83;;;;;;;1.66;100.00;100208.31;4969853;28;20030;-70
2022/12/08 09:23:03;;;;;;;54.97;23.10;;;;;;;1.70;100.00;100209.78;4969991;28;20028;-71
2022/12/08 09:25:28;;;;;;;35.93;18.10;;;;;;;1.72;100.00;100207.00;4968782;28;20391;-70
2022/12/08 09:27:54;;;;;;;32.80;17.03;;;;;;;1.69;100.00;100210.72;4970483;28;20137;-70
2022/12/08 09:30:19;;;;;;;63.43;21.60;;;;;;;1.76;100.00;100214.66;4969172;28;20078;-72
2022/12/08 09:32:44;;;;;;;45.83;18.80;;;;;;;1.90;100.00;100217.09;4969664;28;20113;-70
2022/12/08 09:35:10;;;;;;;48.28;20.67;;;;;;;1.82;100.00;100208.81;4969194;28;20022;-70
2022/12/08 09:37:35;;;;;;;54.45;21.33;;;;;;;1.98;100.00;100218.31;4969017;28;20448;-70
2022/12/08 09:40:01;;;;;;;92.72;48.45;;;;;;;1.93;100.00;100215.16;4969528;28;20030;-70
2022/12/08 09:42:42;;;;;;;41.05;18.48;;;;;;;1.85;100.00;100219.28;4966786;28;20151;-70
2022/12/08 09:45:13;;;;;;;32.17;13.25;;;;;;;1.70;100.00;100215.13;4969556;28;20018;-71
2022/12/08 09:47:42;;;;;;;29.13;16.23;;;;;;;1.76;100.00;100220.00;4969468;28;20037;-70
2022/12/08 09:50:28;;;;;;;39.33;18.98;;;;;;;1.97;100.00;100222.81;4970494;28;20066;-72
2022/12/08 09:53:32;;;;;;;48.28;19.02;;;;;;;2.08;100.00;100224.63;4974798;28;20022;-70
2022/12/08 09:56:18;;;;;;;35.67;16.15;;;;;;;2.05;100.00;100219.53;4969481;28;20022;-71
2022/12/08 09:58:52;;;;;;;44.63;18.63;;;;;;;1.98;100.00;100221.00;4965610;28;20026;-70
2022/12/08 10:01:20;;;;;;;37.67;18.00;;;;;;;2.05;100.00;100224.88;4961122;28;20445;-70
2022/12/08 10:03:46;;;;;;;36.33;16.60;;;;;;;2.04;100.00;100225.84;4979074;28;20022;-71
2022/12/08 10:06:29;;;;;;;40.70;18.17;;;;;;;1.92;100.00;100222.31;4961460;28;20034;-70
2022/12/08 10:09:30;;;;;;;34.70;16.92;;;;;;;1.76;100.00;100225.34;4989843;28;20448;-71
2022/12/08 10:12:01;;;;;;;28.93;14.53;;;;;;;1.81;100.00;100223.13;4971998;28;20134;-70
2022/12/08 10:14:45;;;;;;;22.73;12.27;;;;;;;2.07;100.00;100221.09;4970758;28;20270;-71
2022/12/08 10:17:33;;;;;;;27.37;14.27;;;;;;;1.93;100.00;100223.16;4965051;28;20034;-70
2022/12/08 10:20:19;;;;;;;22.60;13.23;;;;;;;1.94;100.00;100227.53;4965288;28;20026;-69
2022/12/08 10:22:48;;;;;;;21.40;12.03;;;;;;;1.77;100.00;100232.38;4972857;28;20033;-71
2022/12/08 10:25:19;;;;;;;29.00;13.87;;;;;;;1.50;100.00;100229.09;4956587;28;20041;-70
2022/12/08 10:27:50;;;;;;;26.83;13.53;;;;;;;1.44;100.00;100232.28;4983177;28;20096;-71
2022/12/08 10:30:18;;;;;;;29.88;13.85;;;;;;;1.57;100.00;100230.38;4981305;28;20057;-72
2022/12/08 10:32:47;;;;;;;23.37;12.33;;;;;;;1.50;100.00;100234.44;4955647;28;20066;-71
2022/12/08 10:35:16;;;;;;;23.07;12.93;;;;;;;1.29;100.00;100235.09;4960250;28;20078;-71
2022/12/08 10:37:58;;;;;;;20.33;12.17;;;;;;;1.17;100.00;100244.00;4960299;28;20029;-72
2022/12/08 10:40:28;;;;;;;24.55;12.48;;;;;;;1.42;100.00;100239.50;4958054;28;20353;-72
2022/12/08 10:42:58;;;;;;;20.30;12.03;;;;;;;1.01;100.00;100243.44;4963925;28;20096;-71
2022/12/08 10:45:31;;;;;;;20.53;11.63;;;;;;;1.02;100.00;100242.47;4966561;28;20076;-71
2022/12/08 10:48:05;;;;;;;21.53;11.80;;;;;;;1.18;100.00;100234.22;4962512;28;20506;-71
2022/12/08 10:50:35;;;;;;;19.83;10.97;;;;;;;1.19;100.00;100242.09;4980935;28;20022;-72
2022/12/08 10:53:11;;;;;;;24.50;12.87;;;;;;;1.12;100.00;100240.84;4968154;28;20023;-71
2022/12/08 10:55:43;;;;;;;23.27;11.73;;;;;;;1.28;100.00;100246.72;4969162;28;20026;-71
2022/12/08 10:58:52;;;;;;;18.93;11.80;;;;;;;1.25;100.00;100246.97;4960858;28;20026;-72
2022/12/08 11:01:21;;;;;;;25.90;12.90;;;;;;;1.42;100.00;100236.84;4958830;28;20083;-72
2022/12/08 11:03:54;;;;;;;21.47;11.60;;;;;;;1.32;100.00;100245.56;4958516;28;20022;-72
2022/12/08 11:06:29;;;;;;;21.87;10.70;;;;;;;1.34;100.00;100235.59;4975330;28;20068;-73
2022/12/08 11:08:56;;;;;;;17.97;11.10;;;;;;;1.23;100.00;100238.22;4971610;28;20039;-73
2022/12/08 11:11:37;;;;;;;19.53;10.70;;;;;;;1.18;100.00;100244.88;4956296;28;20030;-72
2022/12/08 11:14:07;;;;;;;20.80;12.83;;;;;;;1.26;100.00;100245.16;4956849;28;20034;-72
2022/12/08 11:16:33;;;;;;;20.13;12.90;;;;;;;1.27;100.00;100239.69;4971819;28;20038;-73
2022/12/08 11:19:05;;;;;;;18.77;11.73;;;;;;;1.35;100.00;100241.78;4966733;28;20046;-73
2022/12/08 11:21:36;;;;;;;18.50;10.88;;;;;;;1.59;100.00;100245.28;4980753;28;20022;-73
2022/12/08 11:24:22;;;;;;;17.43;10.03;;;;;;;1.77;100.00;100237.69;4971099;28;20030;-73
2022/12/08 11:27:07;;;;;;;11.03;7.60;;;;;;;1.21;100.00;100256.16;4979747;28;20034;-72
2022/12/08 11:29:34;;;;;;;17.40;8.33;;;;;;;1.01;100.00;100248.78;4972142;28;20030;-72